.
WxDataArchive / Data Records for 2009-03-09
2009-03-08 March 2009 2009-03-10

Data Records for Monday, 09 March 2009

Time	Temp	Chill	HIndex	Humid	Dewpt	 Wind 	HiWind	WindDir	Rain 	Barom 
-----	----	-----	------	-----	-----	------	------	-------	-----	----- 
00:00	39.5	34.0	39.5	81	34.2	8	16	270	0.00	29.852 
00:05	39.3	33.7	39.3	79	33.3	8	14	270	0.00	29.858 
00:10	39.1	33.5	39.1	78	32.8	8	16	270	0.00	29.865 
00:15	38.8	33.7	38.8	78	32.5	7	18	270	0.00	29.866 
00:20	38.5	33.3	38.5	78	32.2	7	12	270	0.00	29.870 
00:25	38.2	32.4	38.2	77	31.6	8	14	270	0.00	29.877 
00:30	37.9	33.3	37.9	77	31.3	6	13	270	0.00	29.881 
00:35	37.8	34.8	37.8	77	31.2	4	12	270	0.00	29.880 
00:40	37.6	33.7	37.6	78	31.4	5	11	270	0.00	29.881 
00:45	37.5	32.8	37.5	78	31.3	6	15	270	0.00	29.885 
00:50	37.3	31.9	37.3	77	30.8	7	12	270	0.00	29.893 
00:55	37.2	32.4	37.2	77	30.7	6	12	270	0.00	29.901 
01:00	37.2	33.2	37.2	78	31.0	5	9	270	0.00	29.910 
01:05	37.0	32.2	37.0	78	30.8	6	12	270	0.00	29.912 
01:10	37.0	32.2	37.0	79	31.1	6	11	270	0.00	29.915 
01:15	36.9	32.1	36.9	77	30.4	6	17	270	0.00	29.922 
01:20	36.9	31.4	36.9	77	30.4	7	14	270	0.00	29.926 
01:25	36.9	32.8	36.9	78	30.7	5	11	270	0.00	29.933 
01:30	36.8	31.3	36.8	78	30.6	7	21	270	0.00	29.942 
01:35	36.8	32.7	36.8	78	30.6	5	11	270	0.00	29.939 
01:40	36.8	31.9	36.8	78	30.6	6	14	270	0.00	29.947 
01:45	36.6	31.7	36.6	78	30.4	6	12	270	0.00	29.945 
01:50	36.6	32.5	36.6	78	30.4	5	12	270	0.00	29.950 
01:55	36.6	31.7	36.6	78	30.4	6	16	270	0.00	29.955 
02:00	36.5	32.4	36.5	78	30.3	5	12	270	0.00	29.956 
02:05	36.5	31.6	36.5	78	30.3	6	16	270	0.00	29.957 
02:10	36.5	31.6	36.5	78	30.3	6	11	270	0.00	29.964 
02:15	36.3	32.1	36.3	77	29.8	5	10	270	0.00	29.963 
02:20	36.3	33.0	36.3	78	30.1	4	10	270	0.00	29.970 
02:25	36.3	32.1	36.3	78	30.1	5	9	270	0.00	29.974 
02:30	36.3	31.4	36.3	78	30.1	6	13	270	0.00	29.978 
02:35	36.0	31.8	36.0	79	30.1	5	10	270	0.00	29.984 
02:40	35.9	31.7	35.9	80	30.3	5	9	270	0.00	29.989 
02:45	35.9	31.7	35.9	80	30.3	5	12	270	0.00	29.991 
02:50	35.8	32.5	35.8	80	30.2	4	11	270	0.00	29.995 
02:55	35.8	31.5	35.8	80	30.2	5	14	270	0.00	29.995 
03:00	35.6	30.5	35.6	80	30.1	6	12	270	0.00	30.001 
03:05	35.6	32.2	35.6	80	30.1	4	10	270	0.00	30.002 
03:10	35.6	32.2	35.6	79	29.7	4	13	270	0.00	30.004 
03:15	35.8	32.5	35.8	79	29.9	4	11	270	0.00	30.016 
03:20	35.8	32.5	35.8	79	29.9	4	10	270	0.00	30.017 
03:25	35.8	32.5	35.8	79	29.9	4	9	270	0.00	30.019 
03:30	35.6	31.3	35.6	80	30.1	5	13	292	0.00	30.025 
03:35	35.6	35.6	35.6	81	30.4	3	9	270	0.00	30.027 
03:40	35.5	35.5	35.5	81	30.3	3	9	292	0.00	30.030 
03:45	35.5	32.1	35.5	81	30.3	4	11	270	0.00	30.032 
03:50	35.5	31.2	35.5	81	30.3	5	11	270	0.00	30.035 
03:55	35.5	32.1	35.5	81	30.3	4	12	315	0.00	30.040 
04:00	35.3	35.3	35.3	82	30.4	3	10	338	0.00	30.050 
04:05	35.3	31.9	35.3	82	30.4	4	9	270	0.00	30.048 
04:10	35.3	35.3	35.3	83	30.7	3	9	270	0.00	30.057 
04:15	35.3	35.3	35.3	83	30.7	3	9	270	0.00	30.062 
04:20	35.2	35.2	35.2	84	30.9	3	8	270	0.00	30.064 
04:25	35.2	35.2	35.2	84	30.9	3	11	292	0.00	30.064 
04:30	35.2	35.2	35.2	84	30.9	3	7	315	0.00	30.073 
04:35	35.0	35.0	35.0	84	30.7	3	9	315	0.00	30.074 
04:40	35.0	31.5	35.0	84	30.7	4	10	270	0.00	30.076 
04:45	35.0	31.5	35.0	84	30.7	4	9	315	0.00	30.078 
04:50	35.0	35.0	35.0	84	30.7	2	6	338	0.00	30.081 
04:55	35.0	35.0	35.0	84	30.7	2	6	338	0.00	30.092 
05:00	35.0	35.0	35.0	84	30.7	3	6	292	0.00	30.095 
05:05	34.9	34.9	34.9	84	30.6	2	6	292	0.00	30.090 
05:10	34.9	34.9	34.9	84	30.6	2	10	338	0.00	30.089 
05:15	34.9	34.9	34.9	84	30.6	3	6	270	0.00	30.095 
05:20	34.9	34.9	34.9	84	30.6	2	6	292	0.00	30.096 
05:25	34.9	34.9	34.9	84	30.6	2	7	292	0.00	30.098 
05:30	34.9	34.9	34.9	84	30.6	2	5	315	0.00	30.099 
05:35	34.9	34.9	34.9	84	30.6	2	4	270	0.00	30.100 
05:40	34.9	34.9	34.9	84	30.6	2	6	270	0.00	30.103 
05:45	34.9	34.9	34.9	84	30.6	1	5	338	0.00	30.105 
05:50	34.9	34.9	34.9	85	30.9	1	4	338	0.00	30.107 
05:55	34.9	34.9	34.9	85	30.9	2	5	338	0.00	30.106 
06:00	34.7	34.7	34.7	85	30.7	1	4	270	0.00	30.114 
06:05	34.7	34.7	34.7	85	30.7	2	5	315	0.00	30.120 
06:10	34.7	34.7	34.7	85	30.7	1	5	270	0.00	30.125 
06:15	34.9	34.9	34.9	85	30.9	1	4	315	0.00	30.126 
06:20	34.9	34.9	34.9	86	31.1	1	6	315	0.00	30.131 
06:25	34.9	34.9	34.9	86	31.1	1	5	338	0.00	30.135 
06:30	34.9	34.9	34.9	86	31.1	1	4	338	0.00	30.136 
06:35	34.9	34.9	34.9	86	31.1	1	2	338	0.00	30.141 
06:40	34.9	34.9	34.9	86	31.1	1	2	338	0.00	30.142 
06:45	34.9	34.9	34.9	86	31.1	1	5	315	0.00	30.146 
06:50	34.9	34.9	34.9	86	31.1	0	2	270	0.00	30.153 
06:55	34.9	34.9	34.9	86	31.1	1	3	248	0.00	30.159 
07:00	34.9	34.9	34.9	86	31.1	1	6	338	0.00	30.160 
07:05	34.9	34.9	34.9	86	31.1	1	3	292	0.00	30.169 
07:10	34.9	34.9	34.9	86	31.1	1	4	292	0.00	30.174 
07:15	34.9	34.9	34.9	86	31.1	1	5	270	0.00	30.177 
07:20	34.9	34.9	34.9	86	31.1	1	2	270	0.00	30.178 
07:25	35.0	35.0	35.0	86	31.2	1	3	292	0.00	30.183 
07:30	34.9	34.9	34.9	86	31.1	2	9	315	0.00	30.183 
07:35	35.0	35.0	35.0	86	31.2	1	4	270	0.00	30.187 
07:40	35.0	35.0	35.0	86	31.2	1	3	225	0.00	30.188 
07:45	34.9	34.9	34.9	86	31.1	1	3	315	0.00	30.191 
07:50	34.9	34.9	34.9	86	31.1	0	2	315	0.00	30.190 
07:55	34.9	34.9	34.9	86	31.1	1	3	270	0.00	30.192 
08:00	34.9	34.9	34.9	86	31.1	1	3	270	0.00	30.189 
08:05	34.9	34.9	34.9	87	31.4	1	3	338	0.00	30.192 
08:10	34.9	34.9	34.9	87	31.4	2	6	270	0.00	30.195 
08:15	34.9	34.9	34.9	87	31.4	1	6	270	0.00	30.203 
08:20	35.0	35.0	35.0	87	31.5	0	2	292	0.00	30.206 
08:25	35.0	35.0	35.0	87	31.5	1	6	292	0.00	30.201 
08:30	35.0	35.0	35.0	87	31.5	1	3	292	0.00	30.204 
08:35	35.2	35.2	35.2	87	31.7	1	3	292	0.00	30.207 
08:40	35.2	35.2	35.2	87	31.7	0	2	0	0.00	30.209 
08:45	35.3	35.3	35.3	87	31.8	1	3	0	0.00	30.216 
08:50	35.3	35.3	35.3	87	31.8	1	3	338	0.00	30.220 
08:55	35.5	35.5	35.5	86	31.7	0	2	0	0.00	30.221 
09:00	35.5	35.5	35.5	86	31.7	1	3	45	0.00	30.221 
09:05	35.8	35.8	35.8	87	32.3	0	1	45	0.00	30.227 
09:10	35.9	35.9	35.9	86	32.1	0	1	45	0.00	30.228 
09:15	35.9	35.9	35.9	86	32.1	1	3	270	0.00	30.233 
09:20	35.9	35.9	35.9	86	32.1	1	4	270	0.00	30.239 
09:25	35.9	35.9	35.9	86	32.1	0	2	315	0.00	30.242 
09:30	35.9	35.9	35.9	86	32.1	0	3	248	0.00	30.246 
09:35	36.0	36.0	36.0	86	32.2	0	1	248	0.00	30.248 
09:40	36.2	36.2	36.2	86	32.4	0	2	248	0.00	30.253 
09:45	36.3	36.3	36.3	85	32.2	0	1	315	0.00	30.256 
09:50	36.3	36.3	36.3	85	32.2	0	2	315	0.00	30.254 
09:55	36.5	36.5	36.5	85	32.4	0	2	315	0.00	30.249 
10:00	36.5	36.5	36.5	85	32.4	0	1	315	0.00	30.255 
10:05	36.6	36.6	36.6	84	32.2	0	2	315	0.00	30.259 
10:10	36.8	36.8	36.8	84	32.4	0	1	315	0.00	30.260 
10:15	36.9	36.9	36.9	84	32.5	0	1	315	0.00	30.259 
10:20	37.0	37.0	37.0	84	32.6	0	1	315	0.00	30.260 
10:25	37.0	37.0	37.0	83	32.3	0	1	315	0.00	30.262 
10:30	37.0	37.0	37.0	83	32.3	0	1	315	0.00	30.265 
10:35	37.3	37.3	37.3	83	32.6	0	1	315	0.00	30.267 
10:40	37.5	37.5	37.5	82	32.5	0	3	315	0.00	30.266 
10:45	37.6	37.6	37.6	82	32.6	0	3	112	0.00	30.268 
10:50	37.9	37.9	37.9	82	32.9	1	3	112	0.00	30.273 
10:55	38.0	38.0	38.0	81	32.7	1	3	112	0.00	30.267 
11:00	38.5	38.5	38.5	82	33.5	1	2	112	0.00	30.261 
11:05	39.2	39.2	39.2	81	33.9	1	4	112	0.00	30.262 
11:10	39.6	39.6	39.6	78	33.3	2	6	112	0.00	30.262 
11:15	39.6	39.6	39.6	79	33.6	2	5	112	0.00	30.266 
11:20	40.1	40.1	40.1	77	33.5	2	7	90	0.00	30.262 
11:25	39.8	39.8	39.8	76	32.9	2	5	112	0.00	30.261 
11:30	39.9	39.9	39.9	76	33.0	2	5	112	0.00	30.263 
11:35	39.9	39.9	39.9	76	33.0	1	4	112	0.00	30.260 
11:40	39.9	39.9	39.9	77	33.3	2	7	112	0.00	30.257 
11:45	39.9	39.9	39.9	76	33.0	2	4	112	0.00	30.259 
11:50	40.2	40.2	40.2	75	32.9	0	2	68	0.00	30.263 
11:55	40.3	40.3	40.3	74	32.7	1	5	90	0.00	30.266 
12:00	40.2	40.2	40.2	75	32.9	1	4	112	0.00	30.275 
12:05	40.1	40.1	40.1	75	32.8	1	3	112	0.00	30.271 
12:10	40.2	40.2	40.2	76	33.3	1	3	112	0.00	30.270 
12:15	40.8	40.8	40.8	74	33.2	1	3	112	0.00	30.276 
12:20	41.6	41.6	41.6	72	33.3	2	4	112	0.00	30.280 
12:25	42.5	42.5	42.5	71	33.8	1	4	135	0.00	30.278 
12:30	42.8	42.8	42.8	68	33.0	2	5	112	0.00	30.280 
12:35	42.5	42.5	42.5	67	32.3	1	3	135	0.00	30.285 
12:40	42.1	42.1	42.1	69	32.7	1	3	112	0.00	30.284 
12:45	41.8	41.8	41.8	70	32.7	1	5	135	0.00	30.281 
12:50	41.6	41.6	41.6	70	32.6	1	4	90	0.00	30.279 
12:55	41.6	41.6	41.6	70	32.6	1	3	90	0.00	30.278 
13:00	41.8	41.8	41.8	72	33.4	1	4	90	0.00	30.279 
13:05	41.9	41.9	41.9	70	32.8	0	2	90	0.00	30.281 
13:10	42.1	42.1	42.1	70	33.0	1	2	90	0.00	30.280 
13:15	42.2	42.2	42.2	69	32.8	1	4	90	0.00	30.278 
13:20	42.3	42.3	42.3	71	33.6	0	1	202	0.00	30.276 
13:25	42.8	42.8	42.8	69	33.3	0	3	158	0.00	30.274 
13:30	43.1	43.1	43.1	68	33.3	2	6	90	0.00	30.271 
13:35	43.1	43.1	43.1	69	33.6	3	9	90	0.00	30.270 
13:40	43.1	43.1	43.1	69	33.6	2	5	90	0.00	30.268 
13:45	42.8	42.8	42.8	70	33.7	3	7	90	0.00	30.267 
13:50	43.2	43.2	43.2	69	33.7	1	3	90	0.00	30.266 
13:55	43.3	43.3	43.3	67	33.1	1	5	112	0.00	30.263 
14:00	43.3	43.3	43.3	71	34.5	1	4	112	0.00	30.262 
14:05	43.3	43.3	43.3	69	33.8	1	4	90	0.00	30.261 
14:10	43.3	43.3	43.3	67	33.1	2	5	112	0.00	30.256 
14:15	43.2	43.2	43.2	68	33.4	3	7	90	0.00	30.258 
14:20	43.2	43.2	43.2	67	33.0	1	5	112	0.00	30.256 
14:25	43.3	43.3	43.3	68	33.5	1	4	112	0.00	30.255 
14:30	43.6	43.6	43.6	69	34.1	2	5	112	0.00	30.250 
14:35	43.8	43.8	43.8	68	33.9	1	2	112	0.00	30.251 
14:40	44.2	44.2	44.2	68	34.3	1	6	90	0.00	30.251 
14:45	44.5	44.5	44.5	66	33.9	2	5	90	0.00	30.254 
14:50	44.2	44.2	44.2	67	33.9	2	5	112	0.00	30.253 
14:55	44.2	44.2	44.2	67	33.9	1	3	112	0.00	30.255 
15:00	44.2	44.2	44.2	67	33.9	3	9	90	0.00	30.255 
15:05	43.9	43.9	43.9	67	33.7	3	7	112	0.00	30.258 
15:10	43.9	43.9	43.9	67	33.7	1	4	112	0.00	30.257 
15:15	44.3	44.3	44.3	68	34.4	1	4	112	0.00	30.254 
15:20	44.5	44.5	44.5	66	33.9	1	3	112	0.00	30.258 
15:25	44.6	44.6	44.6	67	34.3	1	4	112	0.00	30.258 
15:30	44.8	44.8	44.8	65	33.8	1	3	112	0.00	30.258 
15:35	44.9	44.9	44.9	67	34.6	1	3	135	0.00	30.258 
15:40	44.9	44.9	44.9	66	34.2	2	5	90	0.00	30.258 
15:45	44.9	44.9	44.9	66	34.2	1	3	112	0.00	30.254 
15:50	44.9	44.9	44.9	67	34.6	2	5	90	0.00	30.256 
15:55	44.8	44.8	44.8	67	34.5	2	5	112	0.00	30.249 
16:00	44.6	44.6	44.6	67	34.3	2	5	112	0.00	30.248 
16:05	44.6	44.6	44.6	68	34.7	2	6	90	0.00	30.245 
16:10	44.6	44.6	44.6	68	34.7	2	5	112	0.00	30.240 
16:15	44.8	44.8	44.8	69	35.3	3	5	112	0.00	30.230 
16:20	44.8	44.8	44.8	70	35.6	3	6	90	0.00	30.228 
16:25	44.9	44.9	44.9	68	35.0	1	5	90	0.00	30.228 
16:30	44.8	44.8	44.8	68	34.9	2	6	112	0.00	30.227 
16:35	44.6	44.6	44.6	69	35.1	2	5	90	0.00	30.228 
16:40	44.6	44.6	44.6	68	34.7	2	5	112	0.00	30.227 
16:45	44.5	44.5	44.5	70	35.3	2	5	90	0.00	30.223 
16:50	44.5	44.5	44.5	70	35.3	2	4	112	0.00	30.226 
16:55	44.5	44.5	44.5	70	35.3	1	4	112	0.00	30.228 
17:00	44.5	44.5	44.5	70	35.3	2	5	112	0.00	30.229 
17:05	44.3	44.3	44.3	71	35.5	2	5	90	0.00	30.231 
17:10	44.3	44.3	44.3	72	35.9	1	3	90	0.00	30.232 
17:15	44.3	44.3	44.3	72	35.9	1	3	135	0.00	30.236 
17:20	44.2	44.2	44.2	71	35.4	2	5	112	0.00	30.238 
17:25	43.9	43.9	43.9	72	35.5	2	5	90	0.00	30.231 
17:30	43.9	43.9	43.9	73	35.8	2	4	135	0.00	30.232 
17:35	43.9	43.9	43.9	73	35.8	2	4	90	0.00	30.238 
17:40	43.8	43.8	43.8	73	35.7	1	4	90	0.00	30.242 
17:45	43.8	43.8	43.8	73	35.7	1	2	90	0.00	30.244 
17:50	43.8	43.8	43.8	74	36.1	0	2	68	0.00	30.246 
17:55	43.6	43.6	43.6	74	35.9	2	4	68	0.00	30.246 
18:00	43.5	43.5	43.5	74	35.8	2	4	90	0.00	30.244 
18:05	43.5	43.5	43.5	75	36.1	2	4	90	0.00	30.243 
18:10	43.3	43.3	43.3	75	35.9	2	5	90	0.00	30.238 
18:15	43.2	43.2	43.2	76	36.2	2	4	90	0.00	30.240 
18:20	43.2	43.2	43.2	76	36.2	2	5	90	0.00	30.242 
18:25	43.1	43.1	43.1	77	36.4	2	4	112	0.00	30.236 
18:30	42.9	42.9	42.9	77	36.2	1	4	112	0.00	30.239 
18:35	42.8	42.8	42.8	77	36.1	1	5	112	0.00	30.237 
18:40	42.8	42.8	42.8	78	36.4	2	5	90	0.00	30.232 
18:45	42.5	42.5	42.5	78	36.1	2	4	112	0.00	30.232 
18:50	42.3	42.3	42.3	79	36.3	2	3	112	0.00	30.233 
18:55	42.3	42.3	42.3	79	36.3	2	4	90	0.00	30.236 
19:00	42.2	42.2	42.2	80	36.5	1	3	90	0.00	30.239 
19:05	42.1	42.1	42.1	80	36.4	1	3	90	0.00	30.239 
19:10	41.9	41.9	41.9	80	36.2	1	3	90	0.00	30.238 
19:15	41.9	41.9	41.9	81	36.5	1	3	90	0.00	30.239 
19:20	41.8	41.8	41.8	81	36.4	1	4	90	0.00	30.241 
19:25	41.6	41.6	41.6	81	36.2	1	3	90	0.00	30.242 
19:30	41.5	41.5	41.5	81	36.1	1	3	90	0.00	30.244 
19:35	41.3	41.3	41.3	82	36.2	2	4	90	0.00	30.241 
19:40	41.2	41.2	41.2	82	36.1	2	5	112	0.00	30.236 
19:45	41.2	41.2	41.2	82	36.1	2	5	90	0.00	30.232 
19:50	41.1	41.1	41.1	82	36.0	2	6	90	0.00	30.231 
19:55	41.1	41.1	41.1	82	36.0	2	4	90	0.00	30.232 
20:00	40.9	40.9	40.9	82	35.8	2	5	90	0.00	30.232 
20:05	40.9	40.9	40.9	82	35.8	2	4	90	0.00	30.231 
20:10	40.8	40.8	40.8	82	35.7	2	4	90	0.00	30.232 
20:15	40.8	40.8	40.8	82	35.7	2	4	90	0.00	30.229 
20:20	40.8	40.8	40.8	82	35.7	3	5	112	0.00	30.222 
20:25	40.8	40.8	40.8	83	36.0	1	5	90	0.00	30.220 
20:30	40.8	40.8	40.8	82	35.7	3	5	112	0.00	30.217 
20:35	40.6	40.6	40.6	82	35.5	3	4	90	0.00	30.217 
20:40	40.6	40.6	40.6	83	35.8	2	5	90	0.00	30.220 
20:45	40.6	40.6	40.6	83	35.8	3	8	90	0.00	30.220 
20:50	40.6	40.6	40.6	82	35.5	3	5	112	0.00	30.220 
20:55	40.6	40.6	40.6	82	35.5	2	5	90	0.00	30.221 
21:00	40.6	38.0	40.6	82	35.5	4	6	90	0.00	30.217 
21:05	40.6	40.6	40.6	82	35.5	3	6	90	0.00	30.216 
21:10	40.5	40.5	40.5	82	35.4	2	5	68	0.00	30.215 
21:15	40.5	40.5	40.5	83	35.8	2	4	112	0.00	30.215 
21:20	40.3	40.3	40.3	83	35.6	3	5	90	0.00	30.215 
21:25	40.2	40.2	40.2	83	35.5	2	6	90	0.00	30.209 
21:30	40.1	40.1	40.1	83	35.4	2	5	90	0.00	30.214 
21:35	39.9	39.9	39.9	83	35.2	1	4	90	0.00	30.212 
21:40	39.8	39.8	39.8	84	35.4	1	4	112	0.00	30.210 
21:45	39.6	39.6	39.6	84	35.2	1	4	90	0.00	30.209 
21:50	39.5	39.5	39.5	84	35.1	2	5	90	0.00	30.208 
21:55	39.3	39.3	39.3	85	35.2	2	4	68	0.00	30.208 
22:00	39.3	39.3	39.3	85	35.2	1	3	68	0.00	30.208 
22:05	39.2	39.2	39.2	85	35.1	1	3	90	0.00	30.204 
22:10	39.2	39.2	39.2	85	35.1	1	4	90	0.00	30.203 
22:15	39.1	39.1	39.1	85	35.0	1	4	90	0.00	30.203 
22:20	39.1	39.1	39.1	85	35.0	1	4	112	0.00	30.198 
22:25	38.9	38.9	38.9	85	34.8	2	5	90	0.00	30.197 
22:30	38.9	38.9	38.9	86	35.1	2	4	90	0.00	30.194 
22:35	38.8	38.8	38.8	86	35.0	2	5	68	0.00	30.190 
22:40	38.9	38.9	38.9	86	35.1	3	7	112	0.00	30.184 
22:45	38.9	38.9	38.9	86	35.1	3	7	90	0.00	30.182 
22:50	39.1	39.1	39.1	86	35.3	3	6	90	0.00	30.182 
22:55	39.1	39.1	39.1	86	35.3	2	5	112	0.00	30.182 
23:00	39.1	39.1	39.1	86	35.3	2	4	112	0.00	30.183 
23:05	39.2	39.2	39.2	86	35.4	3	6	112	0.00	30.182 
23:10	39.3	39.3	39.3	86	35.5	2	6	112	0.00	30.181 
23:15	39.5	39.5	39.5	85	35.4	2	5	90	0.00	30.182 
23:20	39.5	39.5	39.5	85	35.4	3	6	90	0.00	30.184 
23:25	39.6	39.6	39.6	85	35.5	2	7	90	0.00	30.185 
23:30	39.6	39.6	39.6	85	35.5	2	5	90	0.00	30.184 
23:35	39.5	39.5	39.5	85	35.4	1	4	90	0.00	30.183 
23:40	39.5	39.5	39.5	85	35.4	2	4	112	0.00	30.182 
23:45	39.5	39.5	39.5	85	35.4	1	3	68	0.00	30.182 
23:50	39.5	39.5	39.5	85	35.4	1	3	68	0.00	30.181 
23:55	39.3	39.3	39.3	85	35.2	1	4	68	0.00	30.183 

CoCoRaHS
IN-AL-39
A2 Web Hosting
Creative Commons License
GoDaddy
search engine by freefind advanced

loaded 2018-11-13 17:08:17 • last modified 2010-11-18 10:43:29
Privacy PolicyDisclaimer
• wx.awcolley.com is powered by PmWiki v.2002016 •
• all content (unless otherwise noted) © 2018 A W Colley